createdAt,value
2023-01-03T00:03:33.345Z,2.49
2023-01-03T00:06:00.136Z,2.57
2023-01-03T00:08:27.623Z,2.50
2023-01-03T00:10:54.384Z,2.33
2023-01-03T00:13:21.414Z,2.64
2023-01-03T00:15:48.293Z,2.43
2023-01-03T00:18:15.003Z,2.44
2023-01-03T00:20:41.885Z,2.44
2023-01-03T00:23:08.602Z,2.34
2023-01-03T00:25:35.381Z,2.50
2023-01-03T00:28:02.117Z,2.55
2023-01-03T00:30:29.187Z,2.59
2023-01-03T00:32:56.117Z,2.53
2023-01-03T00:35:22.926Z,2.61
2023-01-03T00:37:49.672Z,2.58
2023-01-03T00:40:16.529Z,2.45
2023-01-03T00:43:02.292Z,2.61
2023-01-03T00:45:33.623Z,2.61
2023-01-03T00:48:02.194Z,2.55
2023-01-03T00:50:28.985Z,2.42
2023-01-03T00:52:56.198Z,2.37
2023-01-03T00:55:22.966Z,2.41
2023-01-03T00:57:49.695Z,2.34
2023-01-03T01:00:16.644Z,2.36
2023-01-03T01:02:43.575Z,2.39
2023-01-03T01:05:10.535Z,2.51
2023-01-03T01:07:37.383Z,2.49
2023-01-03T01:10:04.481Z,2.36
2023-01-03T01:12:31.216Z,2.39
2023-01-03T01:14:57.945Z,2.28
2023-01-03T01:17:24.692Z,2.49
2023-01-03T01:19:51.432Z,2.45
2023-01-03T01:22:18.176Z,2.54
2023-01-03T01:24:45.383Z,2.53
2023-01-03T01:27:12.366Z,2.55
2023-01-03T01:29:39.660Z,2.72
2023-01-03T01:32:07.110Z,2.79
2023-01-03T01:34:33.915Z,2.65
2023-01-03T01:37:00.810Z,2.57
2023-01-03T01:39:29.080Z,2.57
2023-01-03T01:42:30.434Z,2.56
2023-01-03T01:45:15.364Z,2.41
2023-01-03T01:48:00.016Z,2.41
2023-01-03T01:50:37.581Z,2.40
2023-01-03T01:53:10.215Z,2.42
2023-01-03T01:55:53.979Z,2.43
2023-01-03T01:58:24.000Z,2.60
2023-01-03T02:00:50.771Z,2.57
2023-01-03T02:03:17.599Z,2.58
2023-01-03T02:05:51.310Z,2.51
2023-01-03T02:08:18.323Z,2.40
2023-01-03T02:10:54.339Z,2.53
2023-01-03T02:13:51.970Z,2.58
2023-01-03T02:16:53.964Z,2.74
2023-01-03T02:19:49.697Z,2.70
2023-01-03T02:22:37.071Z,2.82
2023-01-03T02:25:22.841Z,2.84
2023-01-03T02:28:18.517Z,2.98
2023-01-03T02:31:27.627Z,3.02
2023-01-03T02:34:29.667Z,2.93
2023-01-03T02:37:21.858Z,2.82
2023-01-03T02:40:07.033Z,2.72
2023-01-03T02:43:05.748Z,2.67
2023-01-03T02:45:59.339Z,2.64
2023-01-03T02:48:49.184Z,2.61
2023-01-03T02:51:22.119Z,2.59
2023-01-03T02:53:51.279Z,2.60
2023-01-03T02:56:28.990Z,2.57
2023-01-03T02:59:00.415Z,2.65
2023-01-03T03:01:30.159Z,2.64
2023-01-03T03:03:58.771Z,2.76
2023-01-03T03:06:45.557Z,2.63
2023-01-03T03:09:12.346Z,2.84
2023-01-03T03:12:00.768Z,2.82
2023-01-03T03:14:42.194Z,2.83
2023-01-03T03:17:24.014Z,2.90
2023-01-03T03:20:15.045Z,2.98
2023-01-03T03:23:11.223Z,2.80
2023-01-03T03:25:52.385Z,3.16
2023-01-03T03:28:36.745Z,3.16
2023-01-03T03:31:12.628Z,3.03
2023-01-03T03:33:46.963Z,3.02
2023-01-03T03:36:21.073Z,3.00
2023-01-03T03:38:48.140Z,2.96
2023-01-03T03:42:00.984Z,2.97
2023-01-03T03:45:00.891Z,3.06
2023-01-03T03:47:36.824Z,2.99
2023-01-03T03:50:10.952Z,2.93
2023-01-03T03:52:43.165Z,2.92
2023-01-03T03:55:26.113Z,3.20
2023-01-03T03:58:03.904Z,3.02
2023-01-03T04:00:35.015Z,2.98
2023-01-03T04:03:05.476Z,2.90
2023-01-03T04:05:37.573Z,2.90
2023-01-03T04:08:04.627Z,2.70
2023-01-03T04:10:37.418Z,2.73
2023-01-03T04:13:05.583Z,2.68
2023-01-03T04:15:32.374Z,2.74
2023-01-03T04:18:02.046Z,2.63
2023-01-03T04:20:29.660Z,2.73
2023-01-03T04:22:56.813Z,2.73
2023-01-03T04:25:23.785Z,2.75
2023-01-03T04:27:50.508Z,2.85
2023-01-03T04:30:17.724Z,2.87
2023-01-03T04:32:44.480Z,2.87
2023-01-03T04:35:11.211Z,2.92
2023-01-03T04:37:38.284Z,2.94
2023-01-03T04:40:05.509Z,2.95
2023-01-03T04:42:51.030Z,3.09
2023-01-03T04:45:17.848Z,3.07
2023-01-03T04:47:44.649Z,2.92
2023-01-03T04:50:11.356Z,3.25
2023-01-03T04:52:38.147Z,3.32
2023-01-03T04:55:05.184Z,3.42
2023-01-03T04:57:31.931Z,3.39
2023-01-03T04:59:58.663Z,3.35
2023-01-03T05:02:26.759Z,3.40
2023-01-03T05:04:53.536Z,3.38
2023-01-03T05:07:20.280Z,3.36
2023-01-03T05:09:47.004Z,3.38
2023-01-03T05:12:13.778Z,3.36
2023-01-03T05:14:43.358Z,3.37
2023-01-03T05:17:10.184Z,3.31
2023-01-03T05:19:57.053Z,3.27
2023-01-03T05:22:42.383Z,3.20
2023-01-03T05:25:29.185Z,3.23
2023-01-03T05:27:57.603Z,3.40
2023-01-03T05:30:25.154Z,3.44
2023-01-03T05:32:51.868Z,3.49
2023-01-03T05:35:18.930Z,3.50
2023-01-03T05:37:45.810Z,3.60
2023-01-03T05:40:12.967Z,3.68
2023-01-03T05:42:39.760Z,3.58
2023-01-03T05:45:07.302Z,3.65
2023-01-03T05:47:34.088Z,3.69
2023-01-03T05:50:00.781Z,3.74
2023-01-03T05:52:27.667Z,3.81
2023-01-03T05:54:54.399Z,3.85
2023-01-03T05:57:21.141Z,3.90
2023-01-03T05:59:47.922Z,3.92
2023-01-03T06:02:14.858Z,4.00
2023-01-03T06:04:41.835Z,4.06
2023-01-03T06:07:08.609Z,4.04
2023-01-03T06:09:35.345Z,3.96
2023-01-03T06:12:02.176Z,4.05
2023-01-03T06:14:28.926Z,4.05
2023-01-03T06:17:13.932Z,3.96
2023-01-03T06:19:40.800Z,4.01
2023-01-03T06:22:10.713Z,4.01
2023-01-03T06:24:38.014Z,4.08
2023-01-03T06:27:04.746Z,4.07
2023-01-03T06:29:31.495Z,4.04
2023-01-03T06:32:00.186Z,4.11
2023-01-03T06:34:30.449Z,4.13
2023-01-03T06:36:57.209Z,4.17
2023-01-03T06:39:24.069Z,4.09
2023-01-03T06:41:50.838Z,4.10
2023-01-03T06:44:17.674Z,4.14
2023-01-03T06:47:03.047Z,4.10
2023-01-03T06:49:48.299Z,4.07
2023-01-03T06:52:35.384Z,4.14
2023-01-03T06:55:02.934Z,4.11
2023-01-03T06:57:29.659Z,4.12
2023-01-03T06:59:56.404Z,4.16
2023-01-03T07:02:23.414Z,4.22
2023-01-03T07:04:50.408Z,4.20
2023-01-03T07:07:17.190Z,4.15
2023-01-03T07:09:43.896Z,4.21
2023-01-03T07:12:29.402Z,4.22
2023-01-03T07:14:56.095Z,4.35
2023-01-03T07:17:22.884Z,4.34
2023-01-03T07:19:49.669Z,4.27
2023-01-03T07:22:16.345Z,4.30
2023-01-03T07:24:43.068Z,4.30
2023-01-03T07:27:09.791Z,4.29
2023-01-03T07:29:36.486Z,4.34
2023-01-03T07:32:03.372Z,4.35
2023-01-03T07:34:31.040Z,4.36
2023-01-03T07:36:57.789Z,4.38
2023-01-03T07:39:24.505Z,4.41
2023-01-03T07:42:09.511Z,4.52
2023-01-03T07:44:36.262Z,4.45
2023-01-03T07:47:03.007Z,4.48
2023-01-03T07:49:29.921Z,4.48
2023-01-03T07:51:56.741Z,4.49
2023-01-03T07:54:23.540Z,4.44
2023-01-03T07:56:50.285Z,4.48
2023-01-03T07:59:17.303Z,4.41
2023-01-03T08:01:44.183Z,4.56
2023-01-03T08:04:11.177Z,4.56
2023-01-03T08:06:37.963Z,4.51
2023-01-03T08:09:23.593Z,4.41
2023-01-03T08:12:08.573Z,4.52
2023-01-03T08:14:35.343Z,4.64
2023-01-03T08:17:02.194Z,4.68
2023-01-03T08:19:29.221Z,4.67
2023-01-03T08:21:56.087Z,4.53
2023-01-03T08:24:22.809Z,4.71
2023-01-03T08:26:49.693Z,4.90
2023-01-03T08:29:16.546Z,4.94
2023-01-03T08:31:54.111Z,4.81
2023-01-03T08:34:29.056Z,4.98
2023-01-03T08:37:02.327Z,4.90
2023-01-03T08:39:33.979Z,4.94
2023-01-03T08:42:04.358Z,4.97
2023-01-03T08:44:31.332Z,5.05
2023-01-03T08:47:02.482Z,4.95
2023-01-03T08:49:30.249Z,5.34
2023-01-03T08:51:57.013Z,5.18
2023-01-03T08:54:23.831Z,5.13
2023-01-03T08:56:50.607Z,5.20
2023-01-03T08:59:17.481Z,5.28
2023-01-03T09:01:44.361Z,5.27
2023-01-03T09:04:11.265Z,5.01
2023-01-03T09:06:38.334Z,4.82
2023-01-03T09:09:09.025Z,4.92
2023-01-03T09:11:36.145Z,4.90
2023-01-03T09:14:02.942Z,4.78
2023-01-03T09:16:29.860Z,4.92
2023-01-03T09:18:56.816Z,4.97
2023-01-03T09:21:23.661Z,5.02
2023-01-03T09:23:50.521Z,4.97
2023-01-03T09:26:17.346Z,5.15
2023-01-03T09:28:44.121Z,5.09
2023-01-03T09:31:10.927Z,5.18
2023-01-03T09:33:37.716Z,5.18
2023-01-03T09:36:05.108Z,5.28
2023-01-03T09:38:31.846Z,5.22
2023-01-03T09:41:17.729Z,5.18
2023-01-03T09:43:48.352Z,5.46
2023-01-03T09:46:27.680Z,5.44
2023-01-03T09:48:56.009Z,5.39
2023-01-03T09:51:45.510Z,5.34
2023-01-03T09:54:40.692Z,5.37
2023-01-03T09:57:44.629Z,5.43
2023-01-03T10:00:52.173Z,5.69
2023-01-03T10:03:51.506Z,5.61
2023-01-03T10:06:30.837Z,5.75
2023-01-03T10:09:21.096Z,5.62
2023-01-03T10:12:12.648Z,5.51
2023-01-03T10:15:06.253Z,5.53
2023-01-03T10:17:37.879Z,5.35
2023-01-03T10:20:51.686Z,5.02
2023-01-03T10:23:18.990Z,5.00
2023-01-03T10:25:47.230Z,5.00
2023-01-03T10:28:26.315Z,5.11
2023-01-03T10:31:13.595Z,5.33
2023-01-03T10:33:49.149Z,5.16
2023-01-03T10:36:18.307Z,5.18
2023-01-03T10:38:52.445Z,5.09
2023-01-03T10:41:46.107Z,5.14
2023-01-03T10:44:30.729Z,5.22
2023-01-03T10:47:15.911Z,5.35
2023-01-03T10:49:45.428Z,5.52
2023-01-03T10:52:19.728Z,5.40
2023-01-03T10:54:53.487Z,5.34
2023-01-03T10:57:43.902Z,5.31
2023-01-03T11:00:27.121Z,5.43
2023-01-03T11:02:56.216Z,5.33
2023-01-03T11:05:27.073Z,5.54
2023-01-03T11:07:59.129Z,5.44
2023-01-03T11:10:37.584Z,5.38
2023-01-03T11:13:22.923Z,5.52
2023-01-03T11:15:57.097Z,5.82
2023-01-03T11:18:27.809Z,5.77
2023-01-03T11:20:57.671Z,5.79
2023-01-03T11:23:33.469Z,5.65
2023-01-03T11:26:16.501Z,5.51
2023-01-03T11:29:01.528Z,5.67
2023-01-03T11:31:45.679Z,5.73
2023-01-03T11:35:20.096Z,5.88
2023-01-03T11:38:08.932Z,5.98
2023-01-03T11:40:54.061Z,6.19
2023-01-03T11:43:27.439Z,6.04
2023-01-03T11:46:12.186Z,5.99
2023-01-03T11:49:03.786Z,6.06
2023-01-03T11:51:48.523Z,6.04
2023-01-03T11:54:36.581Z,6.01
2023-01-03T11:57:17.207Z,6.08
2023-01-03T12:00:00.340Z,6.15
2023-01-03T12:02:50.419Z,6.15
2023-01-03T12:05:17.420Z,6.20
2023-01-03T12:07:56.582Z,6.27
2023-01-03T12:10:44.463Z,6.23
2023-01-03T12:13:32.718Z,6.37
2023-01-03T12:16:04.715Z,6.33
2023-01-03T12:18:51.556Z,6.20
2023-01-03T12:21:28.966Z,6.24
2023-01-03T12:24:03.063Z,6.18
2023-01-03T12:26:32.217Z,6.16
2023-01-03T12:29:11.729Z,6.15
2023-01-03T12:31:46.619Z,6.16
2023-01-03T12:34:24.896Z,6.18
2023-01-03T12:37:03.331Z,6.28
2023-01-03T12:39:56.566Z,6.38
2023-01-03T12:42:29.685Z,6.44
2023-01-03T12:45:00.319Z,6.45
2023-01-03T12:47:40.356Z,6.49
2023-01-03T12:50:07.011Z,6.38
2023-01-03T12:52:37.494Z,6.56
2023-01-03T12:55:35.143Z,6.72
2023-01-03T12:58:04.506Z,6.56
2023-01-03T13:00:53.722Z,6.49
2023-01-03T13:03:47.974Z,6.61
2023-01-03T13:06:37.525Z,6.37
2023-01-03T13:09:08.530Z,6.34
2023-01-03T13:11:42.217Z,6.53
2023-01-03T13:14:26.493Z,6.56
2023-01-03T13:16:55.165Z,6.55
2023-01-03T13:19:21.969Z,6.46
2023-01-03T13:22:06.802Z,6.40
2023-01-03T13:24:42.866Z,6.61
2023-01-03T13:27:21.457Z,6.61
2023-01-03T13:29:53.327Z,6.75
2023-01-03T13:32:23.071Z,6.71
2023-01-03T13:35:15.677Z,6.70
2023-01-03T13:37:51.413Z,6.80
2023-01-03T13:41:17.083Z,7.05
2023-01-03T13:43:40.162Z,7.15
2023-01-03T13:46:31.771Z,7.13
2023-01-03T13:49:06.580Z,7.17
2023-01-03T13:51:33.307Z,7.07
2023-01-03T13:54:04.255Z,6.96
2023-01-03T13:56:52.883Z,6.95
2023-01-03T13:59:29.775Z,7.01
2023-01-03T14:02:22.702Z,6.88
2023-01-03T14:05:54.215Z,6.84
2023-01-03T14:08:35.589Z,6.71
2023-01-03T14:11:31.991Z,6.94
2023-01-03T14:14:11.715Z,6.94
2023-01-03T14:16:47.628Z,6.81
2023-01-03T14:19:36.546Z,6.82
2023-01-03T14:22:27.163Z,6.66
2023-01-03T14:24:57.718Z,6.60
2023-01-03T14:27:32.897Z,6.58
2023-01-03T14:30:00.818Z,6.63
2023-01-03T14:32:34.768Z,6.73
2023-01-03T14:35:02.715Z,6.87
2023-01-03T14:37:30.445Z,6.75
2023-01-03T14:40:03.211Z,6.67
2023-01-03T14:42:30.252Z,6.74
2023-01-03T14:44:58.257Z,6.74
2023-01-03T14:47:45.755Z,6.53
2023-01-03T14:50:27.224Z,6.56
2023-01-03T14:52:59.619Z,6.67
2023-01-03T14:55:30.399Z,6.69
2023-01-03T14:57:58.388Z,6.54
2023-01-03T15:00:36.340Z,6.53
2023-01-03T15:03:04.413Z,6.67
2023-01-03T15:05:34.280Z,6.68
2023-01-03T15:08:31.661Z,6.65
2023-01-03T15:11:06.173Z,6.60
2023-01-03T15:13:50.897Z,6.40
2023-01-03T15:16:26.438Z,6.62
2023-01-03T15:19:02.629Z,6.55
2023-01-03T15:21:30.322Z,6.38
2023-01-03T15:23:57.587Z,6.29
2023-01-03T15:26:28.080Z,6.42
2023-01-03T15:29:15.600Z,6.51
2023-01-03T15:31:54.529Z,6.50
2023-01-03T15:34:30.398Z,6.39
2023-01-03T15:37:10.729Z,6.44
2023-01-03T15:39:43.229Z,6.34
2023-01-03T15:42:44.655Z,6.42
2023-01-03T15:45:27.636Z,6.46
2023-01-03T15:48:01.366Z,6.36
2023-01-03T15:50:51.210Z,6.42
2023-01-03T15:53:25.893Z,6.43
2023-01-03T15:56:09.283Z,6.29
2023-01-03T15:58:39.314Z,6.10
2023-01-03T16:01:06.995Z,6.22
2023-01-03T16:03:35.314Z,6.23
2023-01-03T16:06:07.494Z,6.30
2023-01-03T16:08:36.747Z,6.44
2023-01-03T16:11:07.274Z,6.23
2023-01-03T16:13:44.185Z,6.31
2023-01-03T16:16:14.385Z,6.31
2023-01-03T16:18:44.882Z,6.31
2023-01-03T16:21:15.899Z,6.26
2023-01-03T16:23:42.738Z,6.35
2023-01-03T16:26:10.165Z,6.32
2023-01-03T16:28:39.815Z,6.27
2023-01-03T16:31:16.097Z,6.43
2023-01-03T16:33:44.388Z,6.47
2023-01-03T16:36:32.185Z,6.48
2023-01-03T16:39:22.855Z,6.27
2023-01-03T16:42:12.825Z,6.07
2023-01-03T16:44:42.159Z,6.40
2023-01-03T16:47:33.616Z,6.22
2023-01-03T16:50:22.847Z,6.54
2023-01-03T16:52:55.880Z,6.54
2023-01-03T16:55:35.904Z,6.42
2023-01-03T16:58:02.801Z,6.42
2023-01-03T17:00:31.830Z,6.39
2023-01-03T17:03:00.352Z,6.28
2023-01-03T17:05:29.384Z,6.37
2023-01-03T17:08:18.820Z,6.29
2023-01-03T17:10:47.590Z,6.45
2023-01-03T17:13:39.672Z,6.36
2023-01-03T17:16:12.829Z,6.32
2023-01-03T17:18:42.371Z,6.27
2023-01-03T17:21:19.054Z,6.33
2023-01-03T17:23:47.515Z,6.39
2023-01-03T17:26:18.223Z,6.38
2023-01-03T17:28:46.436Z,6.28
2023-01-03T17:31:22.523Z,6.44
2023-01-03T17:33:49.676Z,6.42
2023-01-03T17:36:26.131Z,6.40
2023-01-03T17:38:54.952Z,6.52
2023-01-03T17:41:25.588Z,6.48
2023-01-03T17:43:53.295Z,6.38
2023-01-03T17:46:40.010Z,6.45
2023-01-03T17:49:25.644Z,6.54
2023-01-03T17:51:55.596Z,6.44
2023-01-03T17:54:27.799Z,6.38
2023-01-03T17:56:58.920Z,6.38
2023-01-03T17:59:26.803Z,6.47
2023-01-03T18:01:56.456Z,6.39
2023-01-03T18:04:38.287Z,6.29
2023-01-03T18:07:18.177Z,6.33
2023-01-03T18:09:45.022Z,6.41
2023-01-03T18:12:24.563Z,6.34
2023-01-03T18:14:51.379Z,6.32
2023-01-03T18:17:32.844Z,6.30
2023-01-03T18:20:02.558Z,6.11
2023-01-03T18:22:29.472Z,6.13
2023-01-03T18:24:57.860Z,6.38
2023-01-03T18:27:27.519Z,6.37
2023-01-03T18:29:54.414Z,6.43
2023-01-03T18:32:24.150Z,6.46
2023-01-03T18:34:51.471Z,6.29
2023-01-03T18:37:19.366Z,6.17
2023-01-03T18:39:46.668Z,6.09
2023-01-03T18:42:32.808Z,6.14
2023-01-03T18:44:59.884Z,6.21
2023-01-03T18:47:27.116Z,6.15
2023-01-03T18:49:54.107Z,6.17
2023-01-03T18:52:38.208Z,6.28
2023-01-03T18:55:07.421Z,6.23
2023-01-03T18:57:34.785Z,6.21
2023-01-03T19:00:01.950Z,6.07
2023-01-03T19:02:30.818Z,5.88
2023-01-03T19:04:57.827Z,5.95
2023-01-03T19:07:34.698Z,5.89
2023-01-03T19:10:05.982Z,5.91
2023-01-03T19:12:38.641Z,5.80
2023-01-03T19:15:19.728Z,5.94
2023-01-03T19:17:46.897Z,5.81
2023-01-03T19:20:13.793Z,5.87
2023-01-03T19:22:43.344Z,5.89
2023-01-03T19:25:18.749Z,5.78
2023-01-03T19:27:48.756Z,5.91
2023-01-03T19:30:40.529Z,5.94
2023-01-03T19:33:12.937Z,5.79
2023-01-03T19:35:40.034Z,5.83
2023-01-03T19:38:10.147Z,5.79
2023-01-03T19:40:39.076Z,5.96
2023-01-03T19:43:06.706Z,5.85
2023-01-03T19:45:42.345Z,5.87
2023-01-03T19:48:35.641Z,5.79
2023-01-03T19:51:03.126Z,5.57
2023-01-03T19:53:30.103Z,5.80
2023-01-03T19:55:57.637Z,5.76
2023-01-03T19:58:31.576Z,5.53
2023-01-03T20:01:00.303Z,5.47
2023-01-03T20:03:43.391Z,5.65
2023-01-03T20:06:14.524Z,5.55
2023-01-03T20:08:42.198Z,5.70
2023-01-03T20:11:29.028Z,5.75
2023-01-03T20:13:57.027Z,5.80
2023-01-03T20:16:24.728Z,5.78
2023-01-03T20:18:52.068Z,5.62
2023-01-03T20:21:23.288Z,5.57
2023-01-03T20:31:51.356Z,5.60
2023-01-03T20:34:18.568Z,5.55
2023-01-03T20:36:49.979Z,5.60
2023-01-03T20:39:26.804Z,5.60
2023-01-03T20:41:57.350Z,5.55
2023-01-03T20:44:29.163Z,5.50
2023-01-03T20:46:57.651Z,5.78
2023-01-03T20:49:29.523Z,5.55
2023-01-03T20:52:03.291Z,5.52
2023-01-03T20:54:30.135Z,5.53
2023-01-03T20:56:57.598Z,5.51
2023-01-03T20:59:25.115Z,5.47
2023-01-03T21:01:52.031Z,5.48
2023-01-03T21:04:18.961Z,5.53
2023-01-03T21:06:46.672Z,5.34
2023-01-03T21:09:16.953Z,5.43
2023-01-03T21:11:46.921Z,5.44
2023-01-03T21:14:14.920Z,5.47
2023-01-03T21:16:50.176Z,5.46
2023-01-03T21:19:21.693Z,5.50
2023-01-03T21:21:53.143Z,5.42
2023-01-03T21:24:26.395Z,5.35
2023-01-03T21:26:53.637Z,5.32
2023-01-03T21:29:22.194Z,5.18
2023-01-03T21:31:49.766Z,5.47
2023-01-03T21:34:19.591Z,5.39
2023-01-03T21:36:47.931Z,5.29
2023-01-03T21:39:15.093Z,5.56
2023-01-03T21:42:02.368Z,5.26
2023-01-03T21:44:29.387Z,5.43
2023-01-03T21:47:00.370Z,5.56
2023-01-03T21:49:27.515Z,5.35
2023-01-03T21:51:57.899Z,5.38
2023-01-03T21:54:24.899Z,5.37
2023-01-03T21:56:51.941Z,4.87
2023-01-03T21:59:26.517Z,5.07
2023-01-03T22:02:11.865Z,5.15
2023-01-03T22:04:38.745Z,5.14
2023-01-03T22:07:08.585Z,5.13
2023-01-03T22:09:54.227Z,5.03
2023-01-03T22:12:20.995Z,4.96
2023-01-03T22:14:48.093Z,5.02
2023-01-03T22:17:15.819Z,4.85
2023-01-03T22:19:49.809Z,4.95
2023-01-03T22:22:16.609Z,4.97
2023-01-03T22:24:43.818Z,4.56
2023-01-03T22:27:12.684Z,4.77
2023-01-03T22:29:39.417Z,4.79
2023-01-03T22:32:06.258Z,4.78
2023-01-03T22:34:33.167Z,4.77
2023-01-03T22:36:59.909Z,4.63
2023-01-03T22:39:26.743Z,4.78
2023-01-03T22:41:53.492Z,4.67
2023-01-03T22:44:20.226Z,4.46
2023-01-03T22:46:55.226Z,4.66
2023-01-03T22:49:21.941Z,4.48
2023-01-03T22:51:48.717Z,4.58
2023-01-03T22:54:15.477Z,4.39
2023-01-03T22:56:42.331Z,4.55
2023-01-03T22:59:09.159Z,4.37
2023-01-03T23:01:37.470Z,4.30
2023-01-03T23:04:06.685Z,4.26
2023-01-03T23:06:35.971Z,4.12
2023-01-03T23:09:03.399Z,4.12
2023-01-03T23:11:50.995Z,4.11
2023-01-03T23:14:25.063Z,3.83
2023-01-03T23:16:53.406Z,3.72
2023-01-03T23:19:23.838Z,3.62
2023-01-03T23:21:51.432Z,3.51
2023-01-03T23:24:22.519Z,3.42
2023-01-03T23:26:49.604Z,3.23
2023-01-03T23:29:16.797Z,3.23
2023-01-03T23:31:44.331Z,3.14
2023-01-03T23:34:12.591Z,3.07
2023-01-03T23:36:43.485Z,2.98
2023-01-03T23:39:16.568Z,2.98
2023-01-03T23:41:43.888Z,2.95
2023-01-03T23:44:10.638Z,2.90
2023-01-03T23:46:37.497Z,2.86
2023-01-03T23:49:04.431Z,2.80
2023-01-03T23:51:31.213Z,2.80
2023-01-03T23:53:57.956Z,3.00
2023-01-03T23:56:25.113Z,2.66
2023-01-03T23:58:52.898Z,2.91
